CMA CGM Turquoise — A8RB5 — position and weather

sailwx.info

Track history (hours):
 
Tides and Currents Weather Stations Pressure Air Temp Water Temp Dewpoint Dewpoint Depression Visibility Wind Speed Wind Dir Waves Ship Positions

CMA CGM Turquoise

Last reported at 2017-Feb-15 18:26 UTC. Time now 2017-Feb-24 02:19 UTC.
Position N 01°16' E 104°08'.
Warning: this ship's position is 8 days out of date.

Length 258 m; draft 8.1 m.

Type: Ship (hazmat cat A). MMSI: 636014059.

Date/timePositionNaut miles runAvg speedWind from/ knotsBaromVisibWave heightAir tempDewpointWater temp
2017-Feb-15 18:26N 01°16' E 104°08'1213.1
2017-Feb-15 17:33N 01°13' E 103°56'9 9.4
2017-Feb-15 16:33N 01°14' E 103°47'2 1.6
2017-Feb-15 15:31N 01°14' E 103°49'0 0.1
2017-Feb-15 14:31N 01°14' E 103°49'0 0.0
2017-Feb-15 13:28N 01°14' E 103°49'0 0.0
2017-Feb-15 12:31N 01°14' E 103°49'0 0.0
2017-Feb-15 11:31N 01°14' E 103°49'0 0.1
2017-Feb-15 10:31N 01°14' E 103°49'0 0.0
2017-Feb-15 09:31N 01°14' E 103°49'0 0.1
2017-Feb-15 08:28N 01°14' E 103°49'0 0.1
2017-Feb-15 07:31N 01°14' E 103°49'0 0.1
2017-Feb-15 06:28N 01°14' E 103°49'0 0.2
2017-Feb-15 05:31N 01°14' E 103°49'0 0.2
2017-Feb-15 04:31N 01°14' E 103°49'0 0.0
2017-Feb-15 03:31N 01°14' E 103°49'0 0.0
2017-Feb-15 02:31N 01°14' E 103°49'0 0.1
2017-Feb-15 01:28N 01°14' E 103°49'0 0.0
2017-Feb-15 00:31N 01°14' E 103°49'0 0.0
2017-Feb-14 23:31N 01°14' E 103°49'0 0.1
2017-Feb-14 22:31N 01°14' E 103°49'0 0.1
2017-Feb-14 21:31N 01°14' E 103°49'0 0.3
2017-Feb-14 20:33N 01°14' E 103°49'2 2.2
2017-Feb-14 19:32N 01°15' E 103°47'0 0.0
2017-Feb-14 18:32N 01°15' E 103°47'0 0.0
2017-Feb-14 17:32N 01°15' E 103°47'0 0.0
2017-Feb-14 16:32N 01°15' E 103°47'0 0.0
2017-Feb-14 15:33N 01°15' E 103°47'4 4.3
2017-Feb-14 14:33N 01°14' E 103°43'9 9.3
2017-Feb-14 13:34N 01°11' E 103°34'9 8.4
2017-Feb-14 12:33N 01°11' E 103°25'4614.1
2017-Feb-14 09:15N 01°38' E 102°48'1513.8
2017-Feb-14 08:12N 01°44' E 102°34'913.4
2017-Feb-14 07:33N 01°47' E 102°27'  
Track history (hours):
 
Tides and Currents Weather Stations Pressure Air Temp Water Temp Dewpoint Dewpoint Depression Visibility Wind Speed Wind Dir Waves Ship Positions

CMA CGM Turquoise

Last reported at 2017-Feb-15 18:26 UTC. Time now 2017-Feb-24 02:19 UTC.
Position N 01°16' E 104°08'.
Warning: this ship's position is 8 days out of date.

Length 258 m; draft 8.1 m.

Type: Ship (hazmat cat A). MMSI: 636014059.

Date/timePositionNaut miles runAvg speedWind from/ knotsBaromVisibWave heightAir tempDewpointWater temp
2017-Feb-15 18:26N 01°16' E 104°08'1213.1
2017-Feb-15 17:33N 01°13' E 103°56'9 9.4
2017-Feb-15 16:33N 01°14' E 103°47'2 1.6
2017-Feb-15 15:31N 01°14' E 103°49'0 0.1
2017-Feb-15 14:31N 01°14' E 103°49'0 0.0
2017-Feb-15 13:28N 01°14' E 103°49'0 0.0
2017-Feb-15 12:31N 01°14' E 103°49'0 0.0
2017-Feb-15 11:31N 01°14' E 103°49'0 0.1
2017-Feb-15 10:31N 01°14' E 103°49'0 0.0
2017-Feb-15 09:31N 01°14' E 103°49'0 0.1
2017-Feb-15 08:28N 01°14' E 103°49'0 0.1
2017-Feb-15 07:31N 01°14' E 103°49'0 0.1
2017-Feb-15 06:28N 01°14' E 103°49'0 0.2
2017-Feb-15 05:31N 01°14' E 103°49'0 0.2
2017-Feb-15 04:31N 01°14' E 103°49'0 0.0
2017-Feb-15 03:31N 01°14' E 103°49'0 0.0
2017-Feb-15 02:31N 01°14' E 103°49'0 0.1
2017-Feb-15 01:28N 01°14' E 103°49'0 0.0
2017-Feb-15 00:31N 01°14' E 103°49'0 0.0
2017-Feb-14 23:31N 01°14' E 103°49'0 0.1
2017-Feb-14 22:31N 01°14' E 103°49'0 0.1
2017-Feb-14 21:31N 01°14' E 103°49'0 0.3
2017-Feb-14 20:33N 01°14' E 103°49'2 2.2
2017-Feb-14 19:32N 01°15' E 103°47'0 0.0
2017-Feb-14 18:32N 01°15' E 103°47'0 0.0
2017-Feb-14 17:32N 01°15' E 103°47'0 0.0
2017-Feb-14 16:32N 01°15' E 103°47'0 0.0
2017-Feb-14 15:33N 01°15' E 103°47'4 4.3
2017-Feb-14 14:33N 01°14' E 103°43'9 9.3
2017-Feb-14 13:34N 01°11' E 103°34'9 8.4
2017-Feb-14 12:33N 01°11' E 103°25'4614.1
2017-Feb-14 09:15N 01°38' E 102°48'1513.8
2017-Feb-14 08:12N 01°44' E 102°34'913.4
2017-Feb-14 07:33N 01°47' E 102°27'  

Dump ship's entire track history